Bf Caroda — V2CV5 — position and weather

sailwx.info

Track history (hours):
 
Tides and Currents Weather Stations Pressure Air Temp Water Temp Dewpoint Dewpoint Depression Visibility Wind Speed Wind Dir Waves Ship Positions

Bf Caroda

Last reported at 2015-Mar-23 07:21 UTC. Time now 2015-Mar-28 09:22 UTC.
Position N 35°53' W 005°33'.

Length 134 m; draft 8.4 m.

Type: Ship (hazmat cat A). MMSI: 304678000.

Date/timePositionNaut miles runAvg speedWind from/ knotsBaromVisibWave heightAir tempDewpointWater temp
2015-Mar-23 07:21N 35°53' W 005°33'810.4
2015-Mar-23 06:33N 35°59' W 005°27'1312.9
2015-Mar-23 05:33N 36°02' W 005°11'21514.3
2015-Mar-22 14:32N 37°01' W 000°54'6 5.6
2015-Mar-22 13:31N 37°04' W 000°47'1 0.4
2015-Mar-22 10:28N 37°03' W 000°47'0 0.2
2015-Mar-22 09:29N 37°02' W 000°47'0 0.2
2015-Mar-22 08:31N 37°02' W 000°47'0 0.4
2015-Mar-22 07:33N 37°02' W 000°48'0 0.5
2015-Mar-22 06:33N 37°02' W 000°48'1 0.6
2015-Mar-22 05:14N 37°02' W 000°49'1 0.7
2015-Mar-22 04:20N 37°02' W 000°50'4 0.7
2015-Mar-21 23:32N 37°01' W 000°54'2 0.9
2015-Mar-21 21:33N 36°59' W 000°54'1 0.9
2015-Mar-21 20:17N 36°58' W 000°54'2 0.8
2015-Mar-21 18:11N 36°57' W 000°53'0 0.5
2015-Mar-21 17:33N 36°57' W 000°52'2 0.5
2015-Mar-21 13:20N 36°57' W 000°50'7 7.1
2015-Mar-21 12:22N 37°04' W 000°50'1113.9
2015-Mar-21 11:33N 37°15' W 000°47'1414.1
2015-Mar-21 10:33N 37°28' W 000°40'1414.2
2015-Mar-21 09:33N 37°39' W 000°29'1414.0
2015-Mar-21 08:33N 37°51' W 000°20'1514.8
2015-Mar-21 07:33N 38°03' W 000°10'12513.9
2015-Mar-20 22:33N 39°44' E 001°25'1413.8
2015-Mar-20 21:33N 39°55' E 001°37'1414.2
2015-Mar-20 20:33N 40°05' E 001°49'1414.1
2015-Mar-20 19:33N 40°17' E 002°00'1414.0
2015-Mar-20 18:33N 40°27' E 002°12'1414.3
2015-Mar-20 17:33N 40°39' E 002°24'1414.0
2015-Mar-20 16:33N 40°50' E 002°35'1514.5
2015-Mar-20 15:33N 41°01' E 002°47'1414.0
2015-Mar-20 14:31N 41°12' E 002°59'1615.2
2015-Mar-20 13:27N 41°25' E 003°13'1415.1
2015-Mar-20 12:30N 41°36' E 003°25'1515.7
2015-Mar-20 11:33N 41°48' E 003°37'3315.7
2015-Mar-20 09:26N 42°14' E 004°04'1312.7
2015-Mar-20 08:24N 42°24' E 004°16'1814.4
2015-Mar-20 07:07N 42°38' E 004°32'1215.1
2015-Mar-20 06:21N 42°47' E 004°42'1314.8
2015-Mar-20 05:30N 42°57' E 004°52'1414.7
2015-Mar-20 04:33N 43°08' E 005°05'1313.4
2015-Mar-20 03:33N 43°19' E 005°14'5 4.5
2015-Mar-20 02:32N 43°21' E 005°20'0 0.0
2015-Mar-20 01:31N 43°21' E 005°20'0 0.0
2015-Mar-20 00:31N 43°21' E 005°20'0 0.0
2015-Mar-19 23:33N 43°21' E 005°20'0 0.0
2015-Mar-19 22:33N 43°21' E 005°20'0 0.0
2015-Mar-19 21:33N 43°21' E 005°20'0 0.0
2015-Mar-19 20:32N 43°21' E 005°20'0 0.0
2015-Mar-19 19:32N 43°21' E 005°20'0 0.0
2015-Mar-19 18:31N 43°21' E 005°20'0 0.0
2015-Mar-19 17:34N 43°21' E 005°20'8 8.0
2015-Mar-19 16:33N 43°17' E 005°11'1313.2
2015-Mar-19 15:34N 43°05' E 005°02'1413.7
2015-Mar-19 14:33N 42°56' E 004°48'1413.7
2015-Mar-19 13:33N 42°46' E 004°34'1413.6
2015-Mar-19 12:33N 42°37' E 004°21'1413.7
2015-Mar-19 11:30N 42°27' E 004°07'1313.3
2015-Mar-19 10:31N 42°18' E 003°54'1613.2
2015-Mar-19 09:16N 42°06' E 003°39'1013.3
2015-Mar-19 08:32N 41°60' E 003°29'1313.5
2015-Mar-19 07:32N 41°51' E 003°15'4313.3
2015-Mar-19 04:20N 41°25' E 002°30'1413.2
2015-Mar-19 03:15N 41°17' E 002°15'6 0.5
2015-Mar-18 16:33N 41°21' E 002°10'5 1.0
2015-Mar-18 11:17N 41°19' E 002°17'1318.0
2015-Mar-18 10:32N 41°27' E 002°31'1817.8
2015-Mar-18 09:33N 41°37' E 002°51'2017.1
2015-Mar-18 08:25N 41°49' E 003°11'1817.2
2015-Mar-18 07:23N 42°05' E 003°20'1716.0
2015-Mar-18 06:20N 42°22' E 003°21'14 4.4
2015-Mar-18 03:11N 42°31' E 003°06'0 0.0
2015-Mar-18 02:23N 42°31' E 003°06'0 0.0
2015-Mar-18 01:25N 42°31' E 003°06'0 0.0
2015-Mar-18 00:28N 42°31' E 003°06'0 0.0
2015-Mar-17 23:34N 42°31' E 003°06'0 0.0
2015-Mar-17 22:32N 42°31' E 003°06'0 0.0
2015-Mar-17 21:31N 42°31' E 003°06'0 0.0
2015-Mar-17 20:29N 42°31' E 003°06'0 0.0
2015-Mar-17 19:26N 42°31' E 003°06'0 0.0
2015-Mar-17 18:28N 42°31' E 003°06'0 0.0
2015-Mar-17 17:32N 42°31' E 003°06'0 0.0
2015-Mar-17 15:31N 42°31' E 003°06'0 0.0
2015-Mar-17 12:13N 42°31' E 003°06'0 0.0
2015-Mar-16 21:26N 42°31' E 003°06'0 0.0
2015-Mar-16 19:27N 42°31' E 003°06'0 0.0
2015-Mar-16 18:26N 42°31' E 003°06'0 0.0
2015-Mar-16 17:17N 42°31' E 003°06'0 0.0
2015-Mar-16 16:16N 42°31' E 003°06'0 0.0
2015-Mar-16 14:28N 42°31' E 003°06'0 0.0
2015-Mar-16 09:31N 42°31' E 003°06'88 6.8
2015-Mar-15 20:33N 41°06' E 002°36'1414.0
2015-Mar-15 19:33N 40°54' E 002°25'1414.0
2015-Mar-15 18:33N 40°43' E 002°15'1414.2
2015-Mar-15 17:33N 40°31' E 002°04'1515.0
2015-Mar-15 16:33N 40°19' E 001°54'1514.9
2015-Mar-15 15:33N 40°06' E 001°42'1515.0
2015-Mar-15 14:33N 39°54' E 001°31'1514.7
2015-Mar-15 13:32N 39°42' E 001°20'12115.1
2015-Mar-15 05:33N 38°02' W 000°07'1615.5
2015-Mar-15 04:33N 37°49' W 000°17'1515.3
2015-Mar-15 03:33N 37°36' W 000°28'1615.7
2015-Mar-15 02:33N 37°25' W 000°42'1615.8
2015-Mar-15 01:33N 37°15' W 000°57'21615.4
2015-Mar-14 11:30N 35°60' W 005°10'1718.0
2015-Mar-14 10:33N 35°57' W 005°30'1817.3
2015-Mar-14 09:31N 35°53' W 005°52'  
Track history (hours):
 
Tides and Currents Weather Stations Pressure Air Temp Water Temp Dewpoint Dewpoint Depression Visibility Wind Speed Wind Dir Waves Ship Positions

Bf Caroda

Last reported at 2015-Mar-23 07:21 UTC. Time now 2015-Mar-28 09:22 UTC.
Position N 35°53' W 005°33'.

Length 134 m; draft 8.4 m.

Type: Ship (hazmat cat A). MMSI: 304678000.

Date/timePositionNaut miles runAvg speedWind from/ knotsBaromVisibWave heightAir tempDewpointWater temp
2015-Mar-23 07:21N 35°53' W 005°33'810.4
2015-Mar-23 06:33N 35°59' W 005°27'1312.9
2015-Mar-23 05:33N 36°02' W 005°11'21514.3
2015-Mar-22 14:32N 37°01' W 000°54'6 5.6
2015-Mar-22 13:31N 37°04' W 000°47'1 0.4
2015-Mar-22 10:28N 37°03' W 000°47'0 0.2
2015-Mar-22 09:29N 37°02' W 000°47'0 0.2
2015-Mar-22 08:31N 37°02' W 000°47'0 0.4
2015-Mar-22 07:33N 37°02' W 000°48'0 0.5
2015-Mar-22 06:33N 37°02' W 000°48'1 0.6
2015-Mar-22 05:14N 37°02' W 000°49'1 0.7
2015-Mar-22 04:20N 37°02' W 000°50'4 0.7
2015-Mar-21 23:32N 37°01' W 000°54'2 0.9
2015-Mar-21 21:33N 36°59' W 000°54'1 0.9
2015-Mar-21 20:17N 36°58' W 000°54'2 0.8
2015-Mar-21 18:11N 36°57' W 000°53'0 0.5
2015-Mar-21 17:33N 36°57' W 000°52'2 0.5
2015-Mar-21 13:20N 36°57' W 000°50'7 7.1
2015-Mar-21 12:22N 37°04' W 000°50'1113.9
2015-Mar-21 11:33N 37°15' W 000°47'1414.1
2015-Mar-21 10:33N 37°28' W 000°40'1414.2
2015-Mar-21 09:33N 37°39' W 000°29'1414.0
2015-Mar-21 08:33N 37°51' W 000°20'1514.8
2015-Mar-21 07:33N 38°03' W 000°10'12513.9
2015-Mar-20 22:33N 39°44' E 001°25'1413.8
2015-Mar-20 21:33N 39°55' E 001°37'1414.2
2015-Mar-20 20:33N 40°05' E 001°49'1414.1
2015-Mar-20 19:33N 40°17' E 002°00'1414.0
2015-Mar-20 18:33N 40°27' E 002°12'1414.3
2015-Mar-20 17:33N 40°39' E 002°24'1414.0
2015-Mar-20 16:33N 40°50' E 002°35'1514.5
2015-Mar-20 15:33N 41°01' E 002°47'1414.0
2015-Mar-20 14:31N 41°12' E 002°59'1615.2
2015-Mar-20 13:27N 41°25' E 003°13'1415.1
2015-Mar-20 12:30N 41°36' E 003°25'1515.7
2015-Mar-20 11:33N 41°48' E 003°37'3315.7
2015-Mar-20 09:26N 42°14' E 004°04'1312.7
2015-Mar-20 08:24N 42°24' E 004°16'1814.4
2015-Mar-20 07:07N 42°38' E 004°32'1215.1
2015-Mar-20 06:21N 42°47' E 004°42'1314.8
2015-Mar-20 05:30N 42°57' E 004°52'1414.7
2015-Mar-20 04:33N 43°08' E 005°05'1313.4
2015-Mar-20 03:33N 43°19' E 005°14'5 4.5
2015-Mar-20 02:32N 43°21' E 005°20'0 0.0
2015-Mar-20 01:31N 43°21' E 005°20'0 0.0
2015-Mar-20 00:31N 43°21' E 005°20'0 0.0
2015-Mar-19 23:33N 43°21' E 005°20'0 0.0
2015-Mar-19 22:33N 43°21' E 005°20'0 0.0
2015-Mar-19 21:33N 43°21' E 005°20'0 0.0
2015-Mar-19 20:32N 43°21' E 005°20'0 0.0
2015-Mar-19 19:32N 43°21' E 005°20'0 0.0
2015-Mar-19 18:31N 43°21' E 005°20'0 0.0
2015-Mar-19 17:34N 43°21' E 005°20'8 8.0
2015-Mar-19 16:33N 43°17' E 005°11'1313.2
2015-Mar-19 15:34N 43°05' E 005°02'1413.7
2015-Mar-19 14:33N 42°56' E 004°48'1413.7
2015-Mar-19 13:33N 42°46' E 004°34'1413.6
2015-Mar-19 12:33N 42°37' E 004°21'1413.7
2015-Mar-19 11:30N 42°27' E 004°07'1313.3
2015-Mar-19 10:31N 42°18' E 003°54'1613.2
2015-Mar-19 09:16N 42°06' E 003°39'1013.3
2015-Mar-19 08:32N 41°60' E 003°29'1313.5
2015-Mar-19 07:32N 41°51' E 003°15'4313.3
2015-Mar-19 04:20N 41°25' E 002°30'1413.2
2015-Mar-19 03:15N 41°17' E 002°15'6 0.5
2015-Mar-18 16:33N 41°21' E 002°10'5 1.0
2015-Mar-18 11:17N 41°19' E 002°17'1318.0
2015-Mar-18 10:32N 41°27' E 002°31'1817.8
2015-Mar-18 09:33N 41°37' E 002°51'2017.1
2015-Mar-18 08:25N 41°49' E 003°11'1817.2
2015-Mar-18 07:23N 42°05' E 003°20'1716.0
2015-Mar-18 06:20N 42°22' E 003°21'14 4.4
2015-Mar-18 03:11N 42°31' E 003°06'0 0.0
2015-Mar-18 02:23N 42°31' E 003°06'0 0.0
2015-Mar-18 01:25N 42°31' E 003°06'0 0.0
2015-Mar-18 00:28N 42°31' E 003°06'0 0.0
2015-Mar-17 23:34N 42°31' E 003°06'0 0.0
2015-Mar-17 22:32N 42°31' E 003°06'0 0.0
2015-Mar-17 21:31N 42°31' E 003°06'0 0.0
2015-Mar-17 20:29N 42°31' E 003°06'0 0.0
2015-Mar-17 19:26N 42°31' E 003°06'0 0.0
2015-Mar-17 18:28N 42°31' E 003°06'0 0.0
2015-Mar-17 17:32N 42°31' E 003°06'0 0.0
2015-Mar-17 15:31N 42°31' E 003°06'0 0.0
2015-Mar-17 12:13N 42°31' E 003°06'0 0.0
2015-Mar-16 21:26N 42°31' E 003°06'0 0.0
2015-Mar-16 19:27N 42°31' E 003°06'0 0.0
2015-Mar-16 18:26N 42°31' E 003°06'0 0.0
2015-Mar-16 17:17N 42°31' E 003°06'0 0.0
2015-Mar-16 16:16N 42°31' E 003°06'0 0.0
2015-Mar-16 14:28N 42°31' E 003°06'0 0.0
2015-Mar-16 09:31N 42°31' E 003°06'88 6.8
2015-Mar-15 20:33N 41°06' E 002°36'1414.0
2015-Mar-15 19:33N 40°54' E 002°25'1414.0
2015-Mar-15 18:33N 40°43' E 002°15'1414.2
2015-Mar-15 17:33N 40°31' E 002°04'1515.0
2015-Mar-15 16:33N 40°19' E 001°54'1514.9
2015-Mar-15 15:33N 40°06' E 001°42'1515.0
2015-Mar-15 14:33N 39°54' E 001°31'1514.7
2015-Mar-15 13:32N 39°42' E 001°20'12115.1
2015-Mar-15 05:33N 38°02' W 000°07'1615.5
2015-Mar-15 04:33N 37°49' W 000°17'1515.3
2015-Mar-15 03:33N 37°36' W 000°28'1615.7
2015-Mar-15 02:33N 37°25' W 000°42'1615.8
2015-Mar-15 01:33N 37°15' W 000°57'21615.4
2015-Mar-14 11:30N 35°60' W 005°10'1718.0
2015-Mar-14 10:33N 35°57' W 005°30'1817.3
2015-Mar-14 09:31N 35°53' W 005°52'  

Dump ship's entire track history